Notice: Undefined offset: 173 in /var/www/vhosts/pa0isk.nl/httpdocs/pwsWD/w34_livedata.php on line 151

Notice: Undefined index: name in /var/www/vhosts/pa0isk.nl/httpdocs/pwsWD/metar_load_funct.php on line 61

Notice: Undefined index: humidity_percent in /var/www/vhosts/pa0isk.nl/httpdocs/pwsWD/metar_load_funct.php on line 103
Weather34 Metar Aviation Weather Data Popup
7°C Temp
'.PHP_EOL;
6°C Dauwpunt
% Vochtigheid
Temperatuur
34 KM/H
21 MPH
18 KTS
200°
Zuid Zuid
West

Wind Snelheid
Light Rain
Luchtdruk 1006.92 (hPa)- 29.73 (in)
Zicht 4.3 (mi) - 7 (km)

Huidig weer
EHRD
Locatie 10(km)
Metar:
EHRD 110125Z AUTO 20018KT 170V230 7000 -RA SCT010 BKN013 BKN015CB 07/06 Q1007 NOSIG

Notice: Undefined offset: 1 in /var/www/vhosts/pa0isk.nl/httpdocs/pwsWD/metar_popup.php on line 285

Notice: Undefined offset: 1 in /var/www/vhosts/pa0isk.nl/httpdocs/pwsWD/metar_popup.php on line 287

Warning: gmmktime() expects parameter 1 to be integer, string given in /var/www/vhosts/pa0isk.nl/httpdocs/pwsWD/metar_popup.php on line 288
Thu 1st January 01:00 am

Vliegveld
  Metar Aviation API Data Provided by https://www.checkwx.com/